Portada
METAR-TAF:

METAR-TAF

Aeropuertos :

Aeropuerto de Córdoba

Córdoba, España

latitud: 37-51N, longitud: 004-51W, altitud: 90 m

Observación

El informe se hizo hace 28 minutos, a las 16:00 UTC
Viento 5 kt del suroeste, variando entre sur-suroeste y oeste
Temperatura 20°C
Humedad 37%
Presión 1020 hPa
Visibilidad 10 km o más
sin nubes por debajo de 1500 m y sin presencia de cumulonimbus.

METAR: LEBA 161600Z 23005KT 200V270 CAVOK 20/05 Q1020

Hora: 17:28 (16:28 UTC)

Pronóstico

El informe se hizo hace 2 horas y 28 minutos, a las 14:00 UTC
Pronóstico válido del 16 a las 15 UTC al 16 a las 24 UTC
Viento 4 kt del suroeste
Visibilidad 10 km o más
sin nubes por debajo de 1500 m y sin presencia de cumulonimbus.

TAF: LEBA 161400Z 1615/1624 23004KT CAVOK

Observaciones y pronósticos meteorológicos de más de 4000 aeropuertos (mensajes METAR y TAF).

Los puntos amarillos y rojos representan las estaciones disponibles.

Ponga el ratón en el punto deseado para ver el nombre de la estación.

Haga clic para ver las observaciones y los pronósticos meteorológicos.

Para cambiar el mapa : haga clic en los botones verdes con una cruz de color negro para hacer un zoom, en el botón verde con un guión para alejar o en las flechas verdes para mapas adyacentes.


METAR-TAF: